Skidmore, Texas
Current Conditions -  °F | °C
As of 7:55 AM on Thursday 30 Oct 2014 (Local Time) from KBEA Reporting Station
Haze Haze  
Wind Chill: 67°   Ceiling: 100
Heat Index: 67°   Visibility: 1mi
Dew Point: 67°   Wind: 6mph
Humidity: 100%   Direction: 70°ENE
Pressure: 30.09"   Gusts: NA
Location:  28.25°N, 97.69°W
Report Text: KBEA 301255Z AUTO 07005KT 1SM BR OVC001 20/20 A3009 RMK AO2 T01950195
Loading
Personal Weather Stations






























Interactive Weather Map
Tropical Storm Tracking
New forecast layout! Learn more

10-Day Weather Forecast

Advertisements
Track Severe Weather on mobile